Time;durP1;ratioP1;P1;durP2;ratioP2;P2;SDS_P1;SDS_P2;PMS_P1;PMS_P2;Temp;Humidity;BMP_temperature;BMP_pressure;BME280_temperature;BME280_humidity;BME280_pressure;Samples;Min_cycle;Max_cycle;Signal;HPM_P1;HPM_P2
2021/11/28 00:00:39;;;;;;;19.65;3.30;;;;;;;;;;5023211;28;20038;-61
2021/11/28 00:03:04;;;;;;;9.73;2.15;;;;;;;;;;5013450;28;20030;-62
2021/11/28 00:05:30;;;;;;;20.38;3.10;;;;;;;;;;5017151;28;20111;-62
2021/11/28 00:08:19;;;;;;;18.08;3.45;;;;;;;;;;5015871;28;20525;-61
2021/11/28 00:10:52;;;;;;;8.45;3.25;;;;;;;;;;5015555;28;20061;-61
2021/11/28 00:15:54;;;;;;;8.40;2.30;;;;;;;;;;5022622;28;20038;-62
2021/11/28 00:18:21;;;;;;;12.05;3.00;;;;;;;;;;5027380;28;20068;-61
2021/11/28 00:20:47;;;;;;;16.48;2.38;;;;;;;;;;5024341;28;20378;-61
2021/11/28 00:23:13;;;;;;;8.70;3.08;;;;;;;;;;5020948;28;20068;-62
2021/11/28 00:25:38;;;;;;;4.90;1.80;;;;;;;;;;5016614;28;20618;-62
2021/11/28 00:28:05;;;;;;;17.85;3.42;;;;;;;;;;5017619;28;20026;-61
2021/11/28 00:30:31;;;;;;;7.28;2.35;;;;;;;;;;5019489;28;20127;-62
2021/11/28 00:33:00;;;;;;;18.08;3.42;;;;;;;;;;5021941;28;20113;-62
2021/11/28 00:35:27;;;;;;;14.38;3.40;;;;;;;;;;5025059;28;20033;-61
2021/11/28 00:37:52;;;;;;;15.68;3.38;;;;;;;;;;5020108;28;20038;-61
2021/11/28 00:40:18;;;;;;;9.15;2.58;;;;;;;;;;5019324;28;20030;-61
2021/11/28 00:42:44;;;;;;;11.13;2.97;;;;;;;;;;5019117;28;20030;-61
2021/11/28 00:45:10;;;;;;;9.75;2.88;;;;;;;;;;5018579;28;20073;-62
2021/11/28 00:47:35;;;;;;;5.85;2.05;;;;;;;;;;5015498;28;20115;-62
2021/11/28 00:52:31;;;;;;;14.48;2.65;;;;;;;;;;5016011;28;20543;-62
2021/11/28 00:54:57;;;;;;;15.68;3.45;;;;;;;;;;5016226;28;20037;-62
2021/11/28 00:57:23;;;;;;;9.93;2.40;;;;;;;;;;5017786;28;20044;-62
2021/11/28 00:59:49;;;;;;;10.05;2.30;;;;;;;;;;5021580;28;20385;-62
2021/11/28 01:02:17;;;;;;;8.52;2.65;;;;;;;;;;5018888;28;20034;-62
2021/11/28 01:04:43;;;;;;;14.23;3.08;;;;;;;;;;5016763;28;20042;-61
2021/11/28 01:07:09;;;;;;;12.93;2.63;;;;;;;;;;5022186;28;20045;-63
2021/11/28 01:09:35;;;;;;;10.60;2.35;;;;;;;;;;5017934;28;20108;-63
2021/11/28 01:12:01;;;;;;;18.20;3.58;;;;;;;;;;5016126;28;20025;-63
2021/11/28 01:14:26;;;;;;;11.70;3.17;;;;;;;;;;5020610;28;20547;-62
2021/11/28 01:16:52;;;;;;;16.35;3.47;;;;;;;;;;5024533;28;20078;-63
2021/11/28 01:19:18;;;;;;;14.85;3.17;;;;;;;;;;5021358;28;20033;-62
2021/11/28 01:21:55;;;;;;;13.68;3.85;;;;;;;;;;5022545;28;20561;-63
2021/11/28 01:24:20;;;;;;;13.85;2.85;;;;;;;;;;5014856;28;20032;-63
2021/11/28 01:26:46;;;;;;;13.77;2.28;;;;;;;;;;5021167;28;20026;-63
2021/11/28 01:29:11;;;;;;;8.43;3.15;;;;;;;;;;5014385;28;20030;-63
2021/11/28 01:31:37;;;;;;;8.95;2.65;;;;;;;;;;5021770;28;20495;-62
2021/11/28 01:34:03;;;;;;;9.48;2.55;;;;;;;;;;5011045;28;20111;-63
2021/11/28 01:36:28;;;;;;;18.38;2.83;;;;;;;;;;5020947;28;20084;-63
2021/11/28 01:38:54;;;;;;;14.70;2.80;;;;;;;;;;5018751;28;20465;-63
2021/11/28 01:41:19;;;;;;;15.95;3.90;;;;;;;;;;5021671;28;20095;-64
2021/11/28 01:43:47;;;;;;;14.98;3.13;;;;;;;;;;5017980;28;20439;-64
2021/11/28 01:46:12;;;;;;;10.75;3.25;;;;;;;;;;5022301;28;20454;-63
2021/11/28 01:48:38;;;;;;;7.00;2.33;;;;;;;;;;5023873;28;20025;-63
2021/11/28 01:51:04;;;;;;;8.77;2.33;;;;;;;;;;5022593;28;20025;-63
2021/11/28 01:53:30;;;;;;;7.90;2.50;;;;;;;;;;5016959;28;20050;-63
2021/11/28 01:55:56;;;;;;;8.35;2.53;;;;;;;;;;5024250;28;20048;-62
2021/11/28 01:58:23;;;;;;;17.45;2.63;;;;;;;;;;5001924;28;20118;-63
2021/11/28 02:00:52;;;;;;;7.35;2.17;;;;;;;;;;5022674;28;20040;-63
2021/11/28 02:03:18;;;;;;;6.28;1.90;;;;;;;;;;5023501;28;20034;-63
2021/11/28 02:05:50;;;;;;;8.57;3.25;;;;;;;;;;5019199;28;20038;-63
2021/11/28 02:08:16;;;;;;;9.82;2.08;;;;;;;;;;5018339;28;20041;-63
2021/11/28 02:10:42;;;;;;;14.82;3.63;;;;;;;;;;5016780;28;20112;-62
2021/11/28 02:13:08;;;;;;;5.75;2.33;;;;;;;;;;5012227;28;20570;-62
2021/11/28 02:15:34;;;;;;;14.90;2.55;;;;;;;;;;5021396;28;20034;-62
2021/11/28 02:18:00;;;;;;;9.27;2.80;;;;;;;;;;5023723;28;20503;-61
2021/11/28 02:20:32;;;;;;;14.60;2.85;;;;;;;;;;5018125;28;20022;-61
2021/11/28 02:22:58;;;;;;;9.82;2.95;;;;;;;;;;5020728;28;20191;-61
2021/11/28 02:25:25;;;;;;;8.35;2.20;;;;;;;;;;5016470;28;20550;-61
2021/11/28 02:27:52;;;;;;;11.73;2.22;;;;;;;;;;5020649;28;20093;-61
2021/11/28 02:30:18;;;;;;;8.60;1.70;;;;;;;;;;5017262;28;20064;-61
2021/11/28 02:32:45;;;;;;;9.75;2.45;;;;;;;;;;5014710;28;20500;-61
2021/11/28 02:35:14;;;;;;;8.18;1.98;;;;;;;;;;5020370;28;20022;-61
2021/11/28 02:37:43;;;;;;;6.63;1.85;;;;;;;;;;5012685;28;20036;-61
2021/11/28 02:40:15;;;;;;;12.85;2.00;;;;;;;;;;5019538;28;20030;-61
2021/11/28 02:42:41;;;;;;;13.98;2.15;;;;;;;;;;5016771;28;20025;-59
2021/11/28 02:45:09;;;;;;;15.45;3.10;;;;;;;;;;5016636;28;20481;-61
2021/11/28 02:47:34;;;;;;;9.07;2.20;;;;;;;;;;5020525;28;20488;-61
2021/11/28 02:50:00;;;;;;;18.00;2.47;;;;;;;;;;5014779;28;20048;-60
2021/11/28 02:52:26;;;;;;;10.57;2.22;;;;;;;;;;5022799;28;20567;-61
2021/11/28 02:54:52;;;;;;;8.15;2.60;;;;;;;;;;5022373;28;20485;-61
2021/11/28 02:57:18;;;;;;;9.18;1.85;;;;;;;;;;5017923;28;20467;-61
2021/11/28 02:59:44;;;;;;;13.63;2.55;;;;;;;;;;5017643;28;20033;-62
2021/11/28 03:02:09;;;;;;;6.57;1.90;;;;;;;;;;5018594;28;20037;-61
2021/11/28 03:04:35;;;;;;;16.75;2.22;;;;;;;;;;5011995;28;20036;-61
2021/11/28 03:07:01;;;;;;;17.15;2.45;;;;;;;;;;5020101;28;20025;-60
2021/11/28 03:09:26;;;;;;;13.43;2.97;;;;;;;;;;5018399;28;20037;-61
2021/11/28 03:11:52;;;;;;;14.02;2.53;;;;;;;;;;5022610;28;20025;-60
2021/11/28 03:14:18;;;;;;;10.52;2.00;;;;;;;;;;5018090;28;20447;-62
2021/11/28 03:16:43;;;;;;;8.23;1.77;;;;;;;;;;5017520;28;20045;-61
2021/11/28 03:19:09;;;;;;;9.38;2.40;;;;;;;;;;5018820;28;20045;-61
2021/11/28 03:21:35;;;;;;;8.75;2.65;;;;;;;;;;5010688;28;20034;-61
2021/11/28 03:24:03;;;;;;;7.53;1.98;;;;;;;;;;5012737;28;20133;-61
2021/11/28 03:26:34;;;;;;;9.90;2.38;;;;;;;;;;5019195;28;20067;-61
2021/11/28 03:29:03;;;;;;;14.77;3.23;;;;;;;;;;5017169;28;20030;-61
2021/11/28 03:31:32;;;;;;;12.75;2.75;;;;;;;;;;5018271;28;20040;-61
2021/11/28 03:33:58;;;;;;;12.88;2.42;;;;;;;;;;5014546;28;20025;-61
2021/11/28 03:36:26;;;;;;;10.57;2.00;;;;;;;;;;5018610;28;20412;-61
2021/11/28 03:38:52;;;;;;;10.23;1.88;;;;;;;;;;5013715;28;20381;-61
2021/11/28 03:41:19;;;;;;;11.93;1.95;;;;;;;;;;5014860;28;20543;-61
2021/11/28 03:43:47;;;;;;;12.43;1.92;;;;;;;;;;5021327;28;20489;-61
2021/11/28 03:46:13;;;;;;;18.83;2.47;;;;;;;;;;5017591;28;20359;-60
2021/11/28 03:48:39;;;;;;;12.57;2.20;;;;;;;;;;5014974;28;20040;-61
2021/11/28 03:51:05;;;;;;;12.52;1.95;;;;;;;;;;5016565;28;20022;-60
2021/11/28 03:53:32;;;;;;;16.45;2.78;;;;;;;;;;5022614;28;20075;-61
2021/11/28 03:56:02;;;;;;;15.88;1.92;;;;;;;;;;5017111;28;20030;-61
2021/11/28 03:58:28;;;;;;;12.95;2.05;;;;;;;;;;5013429;28;20037;-61
2021/11/28 04:00:55;;;;;;;8.45;2.03;;;;;;;;;;5021015;28;20504;-61
2021/11/28 04:03:21;;;;;;;3.33;1.30;;;;;;;;;;5015443;28;20034;-61
2021/11/28 04:05:46;;;;;;;6.78;1.98;;;;;;;;;;5016677;28;20053;-61
2021/11/28 04:08:12;;;;;;;19.05;2.53;;;;;;;;;;5017139;28;20041;-62
2021/11/28 04:10:37;;;;;;;8.98;1.55;;;;;;;;;;5023775;28;20034;-63
2021/11/28 04:13:03;;;;;;;10.70;2.22;;;;;;;;;;5017875;28;20487;-62
2021/11/28 04:15:29;;;;;;;11.68;1.95;;;;;;;;;;5020792;28;20119;-61
2021/11/28 04:17:55;;;;;;;10.98;1.55;;;;;;;;;;5022344;28;20055;-62
2021/11/28 04:20:20;;;;;;;10.77;1.63;;;;;;;;;;5024149;28;20501;-62
2021/11/28 04:22:46;;;;;;;6.78;1.42;;;;;;;;;;5019291;28;20044;-63
2021/11/28 04:25:13;;;;;;;12.13;1.55;;;;;;;;;;5013629;28;20033;-60
2021/11/28 04:27:40;;;;;;;13.18;2.08;;;;;;;;;;5020547;28;20677;-61
2021/11/28 04:30:07;;;;;;;5.10;1.70;;;;;;;;;;5022056;28;20261;-61
2021/11/28 04:32:33;;;;;;;7.68;1.40;;;;;;;;;;5018401;28;20413;-61
2021/11/28 04:34:59;;;;;;;12.73;1.85;;;;;;;;;;5015719;28;20038;-60
2021/11/28 04:37:24;;;;;;;6.28;1.23;;;;;;;;;;5022268;28;20030;-62
2021/11/28 04:39:50;;;;;;;9.60;1.00;;;;;;;;;;5017131;28;20231;-61
2021/11/28 04:42:16;;;;;;;10.73;1.35;;;;;;;;;;5025062;28;20033;-61
2021/11/28 04:44:41;;;;;;;14.23;1.73;;;;;;;;;;5020919;28;20040;-61
2021/11/28 04:47:07;;;;;;;18.38;1.48;;;;;;;;;;5022329;28;20582;-62
2021/11/28 04:49:32;;;;;;;10.63;1.33;;;;;;;;;;5019231;28;20829;-62
2021/11/28 04:51:58;;;;;;;23.60;1.95;;;;;;;;;;5014677;28;20168;-62
2021/11/28 04:54:24;;;;;;;6.30;1.20;;;;;;;;;;5018920;28;20394;-61
2021/11/28 04:56:50;;;;;;;16.55;1.88;;;;;;;;;;5025927;28;20033;-61
2021/11/28 04:59:15;;;;;;;19.90;1.83;;;;;;;;;;5020323;28;20064;-61
2021/11/28 05:01:41;;;;;;;15.65;1.33;;;;;;;;;;5017765;28;20061;-62
2021/11/28 05:04:07;;;;;;;24.67;2.15;;;;;;;;;;5017317;28;20100;-61
2021/11/28 05:06:32;;;;;;;15.82;2.38;;;;;;;;;;5021841;28;20026;-61
2021/11/28 05:08:58;;;;;;;14.18;2.35;;;;;;;;;;5020434;28;20045;-61
2021/11/28 05:11:24;;;;;;;12.50;1.73;;;;;;;;;;5021248;28;20048;-60
2021/11/28 05:13:49;;;;;;;11.00;1.35;;;;;;;;;;5025085;28;20104;-60
2021/11/28 05:16:15;;;;;;;9.85;1.38;;;;;;;;;;5021914;28;20385;-60
2021/11/28 05:18:40;;;;;;;9.35;1.40;;;;;;;;;;5025780;28;20036;-61
2021/11/28 05:21:06;;;;;;;12.07;1.55;;;;;;;;;;5022044;28;20038;-61
2021/11/28 05:23:31;;;;;;;16.63;1.23;;;;;;;;;;5016076;28;20025;-61
2021/11/28 05:25:57;;;;;;;12.48;1.25;;;;;;;;;;5016449;28;20049;-61
2021/11/28 05:28:22;;;;;;;11.98;1.25;;;;;;;;;;5022582;28;20083;-61
2021/11/28 05:30:48;;;;;;;8.73;0.82;;;;;;;;;;5020484;28;20108;-61
2021/11/28 05:33:14;;;;;;;12.50;1.20;;;;;;;;;;5024394;28;20033;-61
2021/11/28 05:35:40;;;;;;;4.03;1.30;;;;;;;;;;5022400;28;20168;-60
2021/11/28 05:38:05;;;;;;;10.90;0.90;;;;;;;;;;5006124;28;20502;-61
2021/11/28 05:40:31;;;;;;;5.22;1.45;;;;;;;;;;5021396;28;20731;-61
2021/11/28 05:42:57;;;;;;;3.80;0.88;;;;;;;;;;5011398;28;20037;-61
2021/11/28 05:45:24;;;;;;;5.05;1.08;;;;;;;;;;5022876;28;20029;-61
2021/11/28 05:47:51;;;;;;;19.50;1.70;;;;;;;;;;5018687;28;20026;-61
2021/11/28 05:50:19;;;;;;;16.25;4.65;;;;;;;;;;5019160;28;20036;-61
2021/11/28 05:52:45;;;;;;;9.48;1.33;;;;;;;;;;5015889;28;20509;-61
2021/11/28 05:55:12;;;;;;;10.27;1.00;;;;;;;;;;5017425;28;20120;-61
2021/11/28 05:57:38;;;;;;;13.63;1.20;;;;;;;;;;5019003;28;20112;-61
2021/11/28 06:00:07;;;;;;;10.48;1.65;;;;;;;;;;5020050;28;20125;-61
2021/11/28 06:02:33;;;;;;;6.47;1.38;;;;;;;;;;5016304;28;20526;-61
2021/11/28 06:04:58;;;;;;;8.80;2.15;;;;;;;;;;5018841;28;20037;-61
2021/11/28 06:07:24;;;;;;;11.20;1.60;;;;;;;;;;5022900;28;20515;-61
2021/11/28 06:09:49;;;;;;;19.92;1.33;;;;;;;;;;5014908;28;20021;-62
2021/11/28 06:12:15;;;;;;;9.05;1.38;;;;;;;;;;5022185;28;20132;-61
2021/11/28 06:14:40;;;;;;;16.08;1.55;;;;;;;;;;5018779;28;20115;-61
2021/11/28 06:17:06;;;;;;;17.95;2.13;;;;;;;;;;5022609;28;20052;-61
2021/11/28 06:19:32;;;;;;;3.13;0.93;;;;;;;;;;5015778;28;20057;-61
2021/11/28 06:21:57;;;;;;;9.25;2.17;;;;;;;;;;5015723;28;20034;-61
2021/11/28 06:24:22;;;;;;;4.10;1.20;;;;;;;;;;5016738;28;20048;-61
2021/11/28 06:26:48;;;;;;;9.60;1.42;;;;;;;;;;5019339;28;20029;-61
2021/11/28 06:29:14;;;;;;;6.53;1.25;;;;;;;;;;5009996;28;20060;-61
2021/11/28 06:31:40;;;;;;;6.30;1.00;;;;;;;;;;5017114;28;20603;-61
2021/11/28 06:34:06;;;;;;;16.75;2.42;;;;;;;;;;5019474;28;20049;-61
2021/11/28 06:36:32;;;;;;;13.40;1.70;;;;;;;;;;5017728;28;20021;-61
2021/11/28 06:38:58;;;;;;;9.88;1.23;;;;;;;;;;5016636;28;20127;-61
2021/11/28 06:41:26;;;;;;;13.52;1.85;;;;;;;;;;5014991;28;20104;-60
2021/11/28 06:43:55;;;;;;;9.63;1.45;;;;;;;;;;5019496;28;20117;-61
2021/11/28 06:46:20;;;;;;;10.82;1.40;;;;;;;;;;5017865;28;20065;-62
2021/11/28 06:48:46;;;;;;;8.27;1.40;;;;;;;;;;5019833;28;20067;-62
2021/11/28 06:51:12;;;;;;;8.50;2.10;;;;;;;;;;5016156;28;20711;-60
2021/11/28 06:53:37;;;;;;;12.32;1.42;;;;;;;;;;5013895;28;20061;-60
2021/11/28 06:56:04;;;;;;;7.75;1.58;;;;;;;;;;5020850;28;20400;-61
2021/11/28 06:58:34;;;;;;;8.70;1.48;;;;;;;;;;5024385;28;20036;-61
2021/11/28 07:00:59;;;;;;;7.65;1.00;;;;;;;;;;5014478;28;20037;-60
2021/11/28 07:03:26;;;;;;;6.90;1.50;;;;;;;;;;5014990;28;20495;-61
2021/11/28 07:05:51;;;;;;;10.77;1.45;;;;;;;;;;5017170;28;20682;-61
2021/11/28 07:08:17;;;;;;;13.60;1.55;;;;;;;;;;5015195;28;20202;-62
2021/11/28 07:10:42;;;;;;;20.27;1.88;;;;;;;;;;5010730;28;20057;-61
2021/11/28 07:13:09;;;;;;;13.57;3.78;;;;;;;;;;5013779;28;20037;-61
2021/11/28 07:15:36;;;;;;;22.70;1.88;;;;;;;;;;5014509;28;20034;-61
2021/11/28 07:18:03;;;;;;;6.88;1.20;;;;;;;;;;5015087;28;20444;-61
2021/11/28 07:20:31;;;;;;;13.00;1.17;;;;;;;;;;5009816;28;20036;-61
2021/11/28 07:22:58;;;;;;;15.10;1.25;;;;;;;;;;5013411;28;20033;-62
2021/11/28 07:25:23;;;;;;;4.88;1.17;;;;;;;;;;5019369;28;20424;-62
2021/11/28 07:27:49;;;;;;;11.60;1.52;;;;;;;;;;5017713;28;20036;-62
2021/11/28 07:30:14;;;;;;;10.30;1.70;;;;;;;;;;5017661;28;20060;-63
2021/11/28 07:32:40;;;;;;;7.72;1.13;;;;;;;;;;5012408;28;20128;-62
2021/11/28 07:35:06;;;;;;;22.55;2.03;;;;;;;;;;5019606;28;20419;-62
2021/11/28 07:37:31;;;;;;;7.90;1.23;;;;;;;;;;5010172;28;20032;-62
2021/11/28 07:39:57;;;;;;;18.40;2.05;;;;;;;;;;5012601;28;20099;-62
2021/11/28 07:42:23;;;;;;;8.07;1.33;;;;;;;;;;5011990;28;20288;-62
2021/11/28 07:44:49;;;;;;;12.82;1.75;;;;;;;;;;5014233;28;20108;-62
2021/11/28 07:47:15;;;;;;;15.65;2.08;;;;;;;;;;5021464;28;20028;-62
2021/11/28 07:49:41;;;;;;;7.47;1.50;;;;;;;;;;5019469;28;20034;-62
2021/11/28 07:52:07;;;;;;;13.10;1.35;;;;;;;;;;5017187;28;20041;-62
2021/11/28 07:54:33;;;;;;;15.40;1.85;;;;;;;;;;5020975;28;20030;-62
2021/11/28 07:56:59;;;;;;;13.80;1.33;;;;;;;;;;5025869;28;20021;-62
2021/11/28 07:59:25;;;;;;;10.82;2.53;;;;;;;;;;5017615;28;20037;-62
2021/11/28 08:01:50;;;;;;;6.78;0.77;;;;;;;;;;5017670;28;20057;-62
2021/11/28 08:04:15;;;;;;;11.45;1.25;;;;;;;;;;5020924;28;20116;-62
2021/11/28 08:06:41;;;;;;;9.15;1.38;;;;;;;;;;5016465;28;20036;-62
2021/11/28 08:09:06;;;;;;;9.35;0.93;;;;;;;;;;5022942;28;20038;-62
2021/11/28 08:11:32;;;;;;;8.23;1.20;;;;;;;;;;5020576;28;20039;-62
2021/11/28 08:13:58;;;;;;;10.77;1.45;;;;;;;;;;5026668;28;20032;-65
2021/11/28 08:16:23;;;;;;;9.98;1.60;;;;;;;;;;5020146;28;20037;-62
2021/11/28 08:18:49;;;;;;;5.50;2.03;;;;;;;;;;5021859;28;20061;-62
2021/11/28 08:21:14;;;;;;;12.77;2.25;;;;;;;;;;5021074;28;20088;-62
2021/11/28 08:23:42;;;;;;;16.80;2.08;;;;;;;;;;5017642;28;20041;-62
2021/11/28 08:26:08;;;;;;;6.35;1.35;;;;;;;;;;5017518;28;20033;-63
2021/11/28 08:28:34;;;;;;;19.35;2.67;;;;;;;;;;5020009;28;20067;-62
2021/11/28 08:31:00;;;;;;;16.73;2.30;;;;;;;;;;5020599;28;20057;-62
2021/11/28 08:33:25;;;;;;;11.73;2.05;;;;;;;;;;5016460;28;20119;-62
2021/11/28 08:35:51;;;;;;;10.48;2.45;;;;;;;;;;5017413;28;20044;-62
2021/11/28 08:38:17;;;;;;;4.18;2.22;;;;;;;;;;5017753;28;20560;-62
2021/11/28 08:40:42;;;;;;;10.98;2.35;;;;;;;;;;5019750;28;20323;-61
2021/11/28 08:43:08;;;;;;;10.50;2.97;;;;;;;;;;5015735;28;20029;-62
2021/11/28 08:45:35;;;;;;;20.23;2.38;;;;;;;;;;5017943;28;20033;-62
2021/11/28 08:48:02;;;;;;;19.63;2.10;;;;;;;;;;5020831;28;20044;-62
2021/11/28 08:50:28;;;;;;;14.57;2.40;;;;;;;;;;5019468;28;20525;-62
2021/11/28 08:52:54;;;;;;;3.97;1.58;;;;;;;;;;5016794;28;20053;-62
2021/11/28 08:55:20;;;;;;;15.82;2.70;;;;;;;;;;5022656;28;20053;-62
2021/11/28 08:57:46;;;;;;;7.57;1.98;;;;;;;;;;5020405;28;20045;-62
2021/11/28 09:00:14;;;;;;;12.00;2.22;;;;;;;;;;5018679;28;20361;-62
2021/11/28 09:02:40;;;;;;;7.72;2.00;;;;;;;;;;5017363;28;20133;-62
2021/11/28 09:05:06;;;;;;;11.93;2.92;;;;;;;;;;5023164;28;20556;-62
2021/11/28 09:07:32;;;;;;;8.73;2.22;;;;;;;;;;5021646;28;20018;-63
2021/11/28 09:09:58;;;;;;;9.23;2.17;;;;;;;;;;5020662;28;20025;-62
2021/11/28 09:12:23;;;;;;;17.20;3.35;;;;;;;;;;5019858;28;20516;-62
2021/11/28 09:14:49;;;;;;;16.75;2.70;;;;;;;;;;5019980;28;20033;-62
2021/11/28 09:17:16;;;;;;;7.47;1.85;;;;;;;;;;5021646;28;20022;-62
2021/11/28 09:22:22;;;;;;;7.15;2.33;;;;;;;;;;5017321;28;20045;-62
2021/11/28 09:24:48;;;;;;;10.10;2.72;;;;;;;;;;5018139;28;20037;-63
2021/11/28 09:27:14;;;;;;;9.98;2.50;;;;;;;;;;5019045;28;20041;-63
2021/11/28 09:29:45;;;;;;;10.98;2.92;;;;;;;;;;5019254;28;20112;-62
2021/11/28 09:32:15;;;;;;;12.93;2.08;;;;;;;;;;5017367;28;20085;-62
2021/11/28 09:34:41;;;;;;;11.95;2.00;;;;;;;;;;5021817;28;20032;-62
2021/11/28 09:37:11;;;;;;;13.68;2.80;;;;;;;;;;5015803;28;20025;-62
2021/11/28 09:39:38;;;;;;;6.45;2.28;;;;;;;;;;5021201;28;20088;-62
2021/11/28 09:42:08;;;;;;;6.55;2.38;;;;;;;;;;5021896;28;20530;-63
2021/11/28 09:44:37;;;;;;;5.50;2.25;;;;;;;;;;5024645;28;20400;-62
2021/11/28 09:47:04;;;;;;;15.95;2.42;;;;;;;;;;5025417;28;20021;-61
2021/11/28 09:49:31;;;;;;;12.07;2.65;;;;;;;;;;5017559;28;20064;-61
2021/11/28 09:52:03;;;;;;;10.57;2.47;;;;;;;;;;5015363;28;20118;-61
2021/11/28 09:54:29;;;;;;;;;;;;;;;;;;5018236;28;20149;-61
2021/11/28 09:56:54;;;;;;;10.93;2.50;;;;;;;;;;5026598;28;19925;-61
2021/11/28 09:59:21;;;;;;;11.55;2.20;;;;;;;;;;5034566;28;20033;-61
2021/11/28 10:01:47;;;;;;;18.40;1.83;;;;;;;;;;5022303;28;20037;-61
2021/11/28 10:04:13;;;;;;;10.77;2.17;;;;;;;;;;5019518;28;20044;-61
2021/11/28 10:06:38;;;;;;;9.23;1.83;;;;;;;;;;5015719;28;20030;-61
2021/11/28 10:09:08;;;;;;;5.05;1.85;;;;;;;;;;5019660;28;20045;-62
2021/11/28 10:11:39;;;;;;;4.90;1.70;;;;;;;;;;5016049;28;20490;-61
2021/11/28 10:14:08;;;;;;;11.77;2.30;;;;;;;;;;5015647;28;20396;-60
2021/11/28 10:16:33;;;;;;;10.75;1.58;;;;;;;;;;5017429;28;20092;-61
2021/11/28 10:19:00;;;;;;;5.70;1.92;;;;;;;;;;5017387;28;20034;-60
2021/11/28 10:21:32;;;;;;;9.75;2.72;;;;;;;;;;5016104;28;20021;-61
2021/11/28 10:24:15;;;;;;;8.77;2.22;;;;;;;;;;5017747;28;20036;-60
2021/11/28 10:27:10;;;;;;;12.23;2.22;;;;;;;;;;5044716;28;20021;-61
2021/11/28 10:29:41;;;;;;;5.57;1.50;;;;;;;;;;5012699;28;20107;-60
2021/11/28 10:32:09;;;;;;;5.50;1.73;;;;;;;;;;5016542;28;20037;-61
2021/11/28 10:34:43;;;;;;;8.77;1.30;;;;;;;;;;5016894;28;20022;-60
2021/11/28 10:37:20;;;;;;;13.20;1.80;;;;;;;;;;5015778;28;20037;-60
2021/11/28 10:40:00;;;;;;;4.85;1.45;;;;;;;;;;5012182;28;20037;-61
2021/11/28 10:42:32;;;;;;;2.70;1.23;;;;;;;;;;5014890;28;20034;-60
2021/11/28 10:45:03;;;;;;;7.38;1.48;;;;;;;;;;5020557;28;20045;-60
2021/11/28 10:47:50;;;;;;;4.68;1.50;;;;;;;;;;5043214;28;20052;-61
2021/11/28 10:50:22;;;;;;;9.82;1.40;;;;;;;;;;5018090;28;20503;-61
2021/11/28 10:52:51;;;;;;;10.00;2.05;;;;;;;;;;5021579;28;20132;-60
2021/11/28 10:55:24;;;;;;;9.10;2.35;;;;;;;;;;5023237;28;20026;-60
2021/11/28 10:58:11;;;;;;;8.50;1.35;;;;;;;;;;5011615;28;20451;-60
2021/11/28 11:01:00;;;;;;;3.58;0.70;;;;;;;;;;5011585;28;20021;-61
2021/11/28 11:03:28;;;;;;;9.40;1.80;;;;;;;;;;5020820;28;20025;-60
2021/11/28 11:06:24;;;;;;;15.63;1.85;;;;;;;;;;5022193;28;20025;-60
2021/11/28 11:09:11;;;;;;;12.20;1.70;;;;;;;;;;5017270;28;20037;-61
2021/11/28 11:11:36;;;;;;;3.78;1.30;;;;;;;;;;5015069;28;20037;-60
2021/11/28 11:14:04;;;;;;;10.52;1.80;;;;;;;;;;5013394;28;20115;-61
2021/11/28 11:16:45;;;;;;;4.57;1.27;;;;;;;;;;5016002;28;20381;-60
2021/11/28 11:19:32;;;;;;;9.95;1.65;;;;;;;;;;5016996;28;20037;-60
2021/11/28 11:22:17;;;;;;;7.00;1.85;;;;;;;;;;5019143;28;20490;-61
2021/11/28 11:24:51;;;;;;;5.50;1.13;;;;;;;;;;5014581;28;20763;-61
2021/11/28 11:27:36;;;;;;;4.90;1.15;;;;;;;;;;5020818;28;20033;-62
2021/11/28 11:30:05;;;;;;;6.20;1.40;;;;;;;;;;5014684;28;20033;-61
2021/11/28 11:32:51;;;;;;;6.20;1.58;;;;;;;;;;5016311;28;20060;-61
2021/11/28 11:35:19;;;;;;;5.75;1.30;;;;;;;;;;5015525;28;20069;-61
2021/11/28 11:37:46;;;;;;;5.15;0.80;;;;;;;;;;5016339;28;20021;-61
2021/11/28 11:40:13;;;;;;;5.47;1.52;;;;;;;;;;5024413;28;20034;-61
2021/11/28 11:42:42;;;;;;;10.40;1.92;;;;;;;;;;5016969;28;20140;-61
2021/11/28 11:45:10;;;;;;;6.10;1.50;;;;;;;;;;5016792;28;20448;-61
2021/11/28 11:47:36;;;;;;;7.03;1.58;;;;;;;;;;5016771;28;20052;-60
2021/11/28 11:50:03;;;;;;;3.00;1.17;;;;;;;;;;5015300;28;20061;-60
2021/11/28 11:52:30;;;;;;;6.03;1.77;;;;;;;;;;5014120;28;20029;-61
2021/11/28 11:55:00;;;;;;;7.03;2.05;;;;;;;;;;5019897;28;20056;-61
2021/11/28 11:57:33;;;;;;;10.45;1.50;;;;;;;;;;5020331;28;20018;-61
2021/11/28 12:00:08;;;;;;;11.27;2.50;;;;;;;;;;5021270;28;20025;-61
2021/11/28 12:02:37;;;;;;;6.82;1.55;;;;;;;;;;5017953;28;20456;-61
2021/11/28 12:05:23;;;;;;;5.32;1.48;;;;;;;;;;5010731;28;20026;-61
2021/11/28 12:07:53;;;;;;;5.68;1.83;;;;;;;;;;5021540;28;20057;-61
2021/11/28 12:10:30;;;;;;;5.07;1.30;;;;;;;;;;5015617;28;20448;-61
2021/11/28 12:12:57;;;;;;;7.53;1.52;;;;;;;;;;5014689;28;20408;-60
2021/11/28 12:15:28;;;;;;;2.97;0.90;;;;;;;;;;5014632;28;20038;-61
2021/11/28 12:17:55;;;;;;;4.68;1.00;;;;;;;;;;5011392;28;20616;-60
2021/11/28 12:20:49;;;;;;;2.25;0.80;;;;;;;;;;5014470;28;20045;-62
2021/11/28 12:23:49;;;;;;;3.47;1.25;;;;;;;;;;5013335;28;20026;-62
2021/11/28 12:26:27;;;;;;;3.40;1.00;;;;;;;;;;5011272;28;20690;-61
2021/11/28 12:29:18;;;;;;;4.60;0.82;;;;;;;;;;5021843;28;20039;-61
2021/11/28 12:31:47;;;;;;;2.58;1.10;;;;;;;;;;5012223;28;20081;-61
2021/11/28 12:34:15;;;;;;;3.60;1.35;;;;;;;;;;5014078;28;20032;-62
2021/11/28 12:36:51;;;;;;;8.25;1.17;;;;;;;;;;5017452;28;20101;-62
2021/11/28 12:39:19;;;;;;;7.00;1.40;;;;;;;;;;5019532;28;20029;-61
2021/11/28 12:44:18;;;;;;;4.95;1.35;;;;;;;;;;5021874;28;20048;-60
2021/11/28 12:46:54;;;;;;;4.30;1.58;;;;;;;;;;5019188;28;20481;-60
2021/11/28 12:49:44;;;;;;;5.38;1.60;;;;;;;;;;5021406;28;20021;-61
2021/11/28 12:52:25;;;;;;;5.00;1.50;;;;;;;;;;5016037;28;20401;-61
2021/11/28 12:55:02;;;;;;;4.00;1.45;;;;;;;;;;5019368;28;20040;-61
2021/11/28 12:57:38;;;;;;;8.23;1.60;;;;;;;;;;5019196;28;20061;-62
2021/11/28 13:00:22;;;;;;;8.45;1.85;;;;;;;;;;5018959;28;20381;-60
2021/11/28 13:02:50;;;;;;;6.70;2.47;;;;;;;;;;5015349;28;20022;-61
2021/11/28 13:05:39;;;;;;;6.65;1.70;;;;;;;;;;5021848;28;20121;-60
2021/11/28 13:08:04;;;;;;;4.60;1.50;;;;;;;;;;5014940;28;20054;-61
2021/11/28 13:10:37;;;;;;;5.50;1.60;;;;;;;;;;5014962;28;20076;-61
2021/11/28 13:13:08;;;;;;;7.28;3.03;;;;;;;;;;5015504;28;20512;-61
2021/11/28 13:15:45;;;;;;;6.63;2.05;;;;;;;;;;5012252;28;20060;-60
2021/11/28 13:18:13;;;;;;;6.30;2.58;;;;;;;;;;5013279;28;20034;-60
2021/11/28 13:20:40;;;;;;;12.55;2.88;;;;;;;;;;5042714;28;20036;-60
2021/11/28 13:23:09;;;;;;;6.55;3.42;;;;;;;;;;5018640;28;20128;-61
2021/11/28 13:25:50;;;;;;;11.30;2.83;;;;;;;;;;5018958;28;20519;-60
2021/11/28 13:28:29;;;;;;;7.28;2.80;;;;;;;;;;5020374;28;20603;-61
2021/11/28 13:31:01;;;;;;;5.93;2.15;;;;;;;;;;5014347;28;20434;-63
2021/11/28 13:33:32;;;;;;;5.07;2.13;;;;;;;;;;5016566;28;20037;-62
2021/11/28 13:36:08;;;;;;;9.75;3.65;;;;;;;;;;5017909;28;20120;-60
2021/11/28 13:38:47;;;;;;;10.80;3.70;;;;;;;;;;5019768;28;20037;-60
2021/11/28 13:41:18;;;;;;;11.82;5.15;;;;;;;;;;5010860;28;20026;-61
2021/11/28 13:43:59;;;;;;;9.57;4.22;;;;;;;;;;5020282;28;20025;-60
2021/11/28 13:46:47;;;;;;;14.35;4.88;;;;;;;;;;5013013;28;20429;-61
2021/11/28 13:49:16;;;;;;;9.35;4.20;;;;;;;;;;5011609;28;20578;-61
2021/11/28 13:51:54;;;;;;;10.60;4.22;;;;;;;;;;5020208;28;20495;-61
2021/11/28 13:54:30;;;;;;;14.55;5.20;;;;;;;;;;5018141;28;20989;-61
2021/11/28 13:57:03;;;;;;;8.50;4.20;;;;;;;;;;5024674;28;20029;-61
2021/11/28 13:59:32;;;;;;;10.70;5.15;;;;;;;;;;5024164;28;20032;-61
2021/11/28 14:02:04;;;;;;;13.45;5.97;;;;;;;;;;5021186;28;20025;-61
2021/11/28 14:04:29;;;;;;;11.15;4.88;;;;;;;;;;5019738;28;20052;-61
2021/11/28 14:06:55;;;;;;;22.40;7.07;;;;;;;;;;5017345;28;20050;-61
2021/11/28 14:09:21;;;;;;;15.45;5.95;;;;;;;;;;4999467;28;20100;-61
2021/11/28 14:11:51;;;;;;;17.38;7.25;;;;;;;;;;5016010;28;20138;-61
2021/11/28 14:14:19;;;;;;;18.10;6.43;;;;;;;;;;5020719;28;20060;-61
2021/11/28 14:16:56;;;;;;;17.08;6.50;;;;;;;;;;5014341;28;20108;-61
2021/11/28 14:19:34;;;;;;;19.80;7.38;;;;;;;;;;5020476;28;20030;-61
2021/11/28 14:22:00;;;;;;;21.02;8.82;;;;;;;;;;5022115;28;20083;-61
2021/11/28 14:24:33;;;;;;;22.48;9.57;;;;;;;;;;5024535;28;20408;-61
2021/11/28 14:27:15;;;;;;;24.42;9.77;;;;;;;;;;5018175;28;20021;-61
2021/11/28 14:29:41;;;;;;;26.73;11.07;;;;;;;;;;5025377;28;20488;-60
2021/11/28 14:32:07;;;;;;;29.10;12.13;;;;;;;;;;4999624;28;20041;-60
2021/11/28 14:34:33;;;;;;;30.27;12.20;;;;;;;;;;5023863;28;20029;-60
2021/11/28 14:36:59;;;;;;;31.52;12.23;;;;;;;;;;5015261;28;20412;-60
2021/11/28 14:39:38;;;;;;;34.83;13.30;;;;;;;;;;5020720;28;20029;-60
2021/11/28 14:42:12;;;;;;;26.23;12.45;;;;;;;;;;5018566;28;20496;-60
2021/11/28 14:44:50;;;;;;;30.30;11.95;;;;;;;;;;5021757;28;20036;-61
2021/11/28 14:47:28;;;;;;;40.45;14.35;;;;;;;;;;5019226;28;20021;-61
2021/11/28 14:49:59;;;;;;;41.78;15.18;;;;;;;;;;5018525;28;20523;-61
2021/11/28 14:52:32;;;;;;;34.88;14.13;;;;;;;;;;5017950;28;20053;-60
2021/11/28 14:55:19;;;;;;;38.83;14.93;;;;;;;;;;5020269;28;20080;-61